sensor_id;sensor_type;location;lat;lon;timestamp;P1;durP1;ratioP1;P2;durP2;ratioP2
41629;SDS011;27322;49.488;8.480;2023-09-18T00:00:42;3.90;;;1.20;;
41629;SDS011;27322;49.488;8.480;2023-09-18T00:03:09;3.83;;;1.23;;
41629;SDS011;27322;49.488;8.480;2023-09-18T00:05:35;3.15;;;1.30;;
41629;SDS011;27322;49.488;8.480;2023-09-18T00:08:00;3.92;;;1.40;;
41629;SDS011;27322;49.488;8.480;2023-09-18T00:10:29;3.45;;;1.40;;
41629;SDS011;27322;49.488;8.480;2023-09-18T00:12:55;3.10;;;1.38;;
41629;SDS011;27322;49.488;8.480;2023-09-18T00:15:21;3.72;;;1.42;;
41629;SDS011;27322;49.488;8.480;2023-09-18T00:17:47;5.40;;;2.20;;
41629;SDS011;27322;49.488;8.480;2023-09-18T00:20:12;4.88;;;1.45;;
41629;SDS011;27322;49.488;8.480;2023-09-18T00:22:38;2.45;;;1.30;;
41629;SDS011;27322;49.488;8.480;2023-09-18T00:25:04;2.70;;;1.23;;
41629;SDS011;27322;49.488;8.480;2023-09-18T00:27:30;5.50;;;2.00;;
41629;SDS011;27322;49.488;8.480;2023-09-18T00:29:57;3.75;;;1.70;;
41629;SDS011;27322;49.488;8.480;2023-09-18T00:32:23;4.28;;;1.50;;
41629;SDS011;27322;49.488;8.480;2023-09-18T00:34:48;6.03;;;1.92;;
41629;SDS011;27322;49.488;8.480;2023-09-18T00:37:14;4.00;;;1.80;;
41629;SDS011;27322;49.488;8.480;2023-09-18T00:39:41;4.10;;;1.63;;
41629;SDS011;27322;49.488;8.480;2023-09-18T00:42:08;3.50;;;1.73;;
41629;SDS011;27322;49.488;8.480;2023-09-18T00:44:38;3.47;;;1.55;;
41629;SDS011;27322;49.488;8.480;2023-09-18T00:47:05;4.05;;;1.83;;
41629;SDS011;27322;49.488;8.480;2023-09-18T00:49:31;3.63;;;1.70;;
41629;SDS011;27322;49.488;8.480;2023-09-18T00:51:58;3.53;;;1.65;;
41629;SDS011;27322;49.488;8.480;2023-09-18T00:54:23;4.38;;;1.75;;
41629;SDS011;27322;49.488;8.480;2023-09-18T00:56:49;4.50;;;1.60;;
41629;SDS011;27322;49.488;8.480;2023-09-18T00:59:19;3.70;;;1.63;;
41629;SDS011;27322;49.488;8.480;2023-09-18T01:01:45;4.82;;;1.60;;
41629;SDS011;27322;49.488;8.480;2023-09-18T01:04:15;3.50;;;1.50;;
41629;SDS011;27322;49.488;8.480;2023-09-18T01:06:42;2.63;;;1.40;;
41629;SDS011;27322;49.488;8.480;2023-09-18T01:09:07;3.42;;;1.60;;
41629;SDS011;27322;49.488;8.480;2023-09-18T01:17:00;2.78;;;1.38;;
41629;SDS011;27322;49.488;8.480;2023-09-18T01:19:38;3.88;;;1.35;;
41629;SDS011;27322;49.488;8.480;2023-09-18T01:22:06;3.10;;;1.60;;
41629;SDS011;27322;49.488;8.480;2023-09-18T01:24:33;2.45;;;1.10;;
41629;SDS011;27322;49.488;8.480;2023-09-18T01:26:59;4.13;;;1.33;;
41629;SDS011;27322;49.488;8.480;2023-09-18T01:29:24;2.40;;;1.20;;
41629;SDS011;27322;49.488;8.480;2023-09-18T01:31:50;2.83;;;1.30;;
41629;SDS011;27322;49.488;8.480;2023-09-18T01:34:18;2.35;;;1.30;;
41629;SDS011;27322;49.488;8.480;2023-09-18T01:36:46;4.30;;;1.70;;
41629;SDS011;27322;49.488;8.480;2023-09-18T01:39:12;4.13;;;1.50;;
41629;SDS011;27322;49.488;8.480;2023-09-18T01:41:38;3.35;;;1.27;;
41629;SDS011;27322;49.488;8.480;2023-09-18T01:44:04;3.13;;;1.27;;
41629;SDS011;27322;49.488;8.480;2023-09-18T01:46:30;2.97;;;1.52;;
41629;SDS011;27322;49.488;8.480;2023-09-18T01:48:57;5.05;;;1.38;;
41629;SDS011;27322;49.488;8.480;2023-09-18T01:51:23;3.97;;;1.40;;
41629;SDS011;27322;49.488;8.480;2023-09-18T01:53:50;2.85;;;1.38;;
41629;SDS011;27322;49.488;8.480;2023-09-18T01:56:17;2.65;;;1.30;;
41629;SDS011;27322;49.488;8.480;2023-09-18T01:58:42;3.53;;;1.40;;
41629;SDS011;27322;49.488;8.480;2023-09-18T02:01:08;4.25;;;1.42;;
41629;SDS011;27322;49.488;8.480;2023-09-18T02:03:33;3.17;;;1.65;;
41629;SDS011;27322;49.488;8.480;2023-09-18T02:05:59;8.05;;;1.60;;
41629;SDS011;27322;49.488;8.480;2023-09-18T02:08:24;7.43;;;1.95;;
41629;SDS011;27322;49.488;8.480;2023-09-18T02:10:50;3.17;;;1.70;;
41629;SDS011;27322;49.488;8.480;2023-09-18T02:13:15;4.70;;;1.70;;
41629;SDS011;27322;49.488;8.480;2023-09-18T02:15:43;6.38;;;1.50;;
41629;SDS011;27322;49.488;8.480;2023-09-18T02:18:08;4.53;;;2.10;;
41629;SDS011;27322;49.488;8.480;2023-09-18T02:20:40;5.03;;;1.70;;
41629;SDS011;27322;49.488;8.480;2023-09-18T02:23:07;5.00;;;1.50;;
41629;SDS011;27322;49.488;8.480;2023-09-18T02:25:32;6.72;;;2.25;;
41629;SDS011;27322;49.488;8.480;2023-09-18T02:27:58;5.57;;;1.70;;
41629;SDS011;27322;49.488;8.480;2023-09-18T02:30:23;3.33;;;1.60;;
41629;SDS011;27322;49.488;8.480;2023-09-18T02:32:49;3.83;;;1.85;;
41629;SDS011;27322;49.488;8.480;2023-09-18T02:35:15;3.85;;;1.70;;
41629;SDS011;27322;49.488;8.480;2023-09-18T02:37:41;6.85;;;2.13;;
41629;SDS011;27322;49.488;8.480;2023-09-18T02:40:06;3.55;;;1.85;;
41629;SDS011;27322;49.488;8.480;2023-09-18T02:42:32;5.60;;;2.00;;
41629;SDS011;27322;49.488;8.480;2023-09-18T02:44:58;7.13;;;2.50;;
41629;SDS011;27322;49.488;8.480;2023-09-18T02:47:24;4.47;;;2.17;;
41629;SDS011;27322;49.488;8.480;2023-09-18T02:49:49;4.15;;;2.03;;
41629;SDS011;27322;49.488;8.480;2023-09-18T02:52:15;4.88;;;2.35;;
41629;SDS011;27322;49.488;8.480;2023-09-18T02:54:40;4.05;;;2.13;;
41629;SDS011;27322;49.488;8.480;2023-09-18T02:57:06;5.78;;;2.50;;
41629;SDS011;27322;49.488;8.480;2023-09-18T02:59:31;3.67;;;2.17;;
41629;SDS011;27322;49.488;8.480;2023-09-18T03:01:57;4.97;;;2.38;;
41629;SDS011;27322;49.488;8.480;2023-09-18T03:04:23;4.55;;;2.40;;
41629;SDS011;27322;49.488;8.480;2023-09-18T03:06:48;4.88;;;2.72;;
41629;SDS011;27322;49.488;8.480;2023-09-18T03:09:14;4.63;;;2.58;;
41629;SDS011;27322;49.488;8.480;2023-09-18T03:11:41;5.78;;;2.70;;
41629;SDS011;27322;49.488;8.480;2023-09-18T03:14:08;5.13;;;2.33;;
41629;SDS011;27322;49.488;8.480;2023-09-18T03:16:34;5.97;;;2.28;;
41629;SDS011;27322;49.488;8.480;2023-09-18T03:18:59;3.40;;;2.13;;
41629;SDS011;27322;49.488;8.480;2023-09-18T03:21:25;4.60;;;2.22;;
41629;SDS011;27322;49.488;8.480;2023-09-18T03:23:51;3.70;;;2.00;;
41629;SDS011;27322;49.488;8.480;2023-09-18T03:26:16;4.07;;;2.03;;
41629;SDS011;27322;49.488;8.480;2023-09-18T03:28:42;4.43;;;2.05;;
41629;SDS011;27322;49.488;8.480;2023-09-18T03:31:07;4.88;;;2.20;;
41629;SDS011;27322;49.488;8.480;2023-09-18T03:33:33;6.03;;;2.70;;
41629;SDS011;27322;49.488;8.480;2023-09-18T03:35:58;4.60;;;2.25;;
41629;SDS011;27322;49.488;8.480;2023-09-18T03:38:24;4.55;;;2.20;;
41629;SDS011;27322;49.488;8.480;2023-09-18T03:40:50;4.72;;;2.60;;
41629;SDS011;27322;49.488;8.480;2023-09-18T03:43:15;5.00;;;2.53;;
41629;SDS011;27322;49.488;8.480;2023-09-18T03:45:41;4.82;;;2.38;;
41629;SDS011;27322;49.488;8.480;2023-09-18T03:48:07;6.43;;;2.10;;
41629;SDS011;27322;49.488;8.480;2023-09-18T03:50:32;7.93;;;2.65;;
41629;SDS011;27322;49.488;8.480;2023-09-18T03:52:58;4.20;;;1.88;;
41629;SDS011;27322;49.488;8.480;2023-09-18T03:55:24;5.45;;;2.40;;
41629;SDS011;27322;49.488;8.480;2023-09-18T03:57:49;5.00;;;1.83;;
41629;SDS011;27322;49.488;8.480;2023-09-18T04:00:17;9.20;;;1.98;;
41629;SDS011;27322;49.488;8.480;2023-09-18T04:02:42;5.53;;;1.70;;
41629;SDS011;27322;49.488;8.480;2023-09-18T04:05:08;8.05;;;1.60;;
41629;SDS011;27322;49.488;8.480;2023-09-18T04:07:34;7.07;;;1.77;;
41629;SDS011;27322;49.488;8.480;2023-09-18T04:10:00;5.22;;;1.40;;
41629;SDS011;27322;49.488;8.480;2023-09-18T04:12:26;7.43;;;1.70;;
41629;SDS011;27322;49.488;8.480;2023-09-18T04:14:51;8.40;;;1.63;;
41629;SDS011;27322;49.488;8.480;2023-09-18T04:17:17;6.53;;;1.90;;
41629;SDS011;27322;49.488;8.480;2023-09-18T04:19:43;6.63;;;1.52;;
41629;SDS011;27322;49.488;8.480;2023-09-18T04:22:09;7.50;;;1.80;;
41629;SDS011;27322;49.488;8.480;2023-09-18T04:24:34;5.35;;;1.67;;
41629;SDS011;27322;49.488;8.480;2023-09-18T04:27:00;5.05;;;1.77;;
41629;SDS011;27322;49.488;8.480;2023-09-18T04:29:26;7.70;;;1.65;;
41629;SDS011;27322;49.488;8.480;2023-09-18T04:31:51;6.78;;;1.70;;
41629;SDS011;27322;49.488;8.480;2023-09-18T04:34:19;7.22;;;1.42;;
41629;SDS011;27322;49.488;8.480;2023-09-18T04:36:44;8.10;;;1.73;;
41629;SDS011;27322;49.488;8.480;2023-09-18T04:39:10;9.68;;;1.90;;
41629;SDS011;27322;49.488;8.480;2023-09-18T04:41:36;7.40;;;1.50;;
41629;SDS011;27322;49.488;8.480;2023-09-18T04:44:01;6.05;;;1.73;;
41629;SDS011;27322;49.488;8.480;2023-09-18T04:46:27;7.20;;;1.60;;
41629;SDS011;27322;49.488;8.480;2023-09-18T04:48:54;8.02;;;1.45;;
41629;SDS011;27322;49.488;8.480;2023-09-18T04:51:20;6.13;;;1.38;;
41629;SDS011;27322;49.488;8.480;2023-09-18T04:53:46;4.40;;;1.42;;
41629;SDS011;27322;49.488;8.480;2023-09-18T04:56:11;5.65;;;1.75;;
41629;SDS011;27322;49.488;8.480;2023-09-18T04:58:37;4.47;;;1.60;;
41629;SDS011;27322;49.488;8.480;2023-09-18T05:01:03;5.40;;;1.80;;
41629;SDS011;27322;49.488;8.480;2023-09-18T05:03:35;5.85;;;1.50;;
41629;SDS011;27322;49.488;8.480;2023-09-18T05:06:01;6.32;;;1.80;;
41629;SDS011;27322;49.488;8.480;2023-09-18T05:08:28;9.30;;;1.92;;
41629;SDS011;27322;49.488;8.480;2023-09-18T05:10:54;6.22;;;1.80;;
41629;SDS011;27322;49.488;8.480;2023-09-18T05:13:20;10.15;;;2.13;;
41629;SDS011;27322;49.488;8.480;2023-09-18T05:15:46;6.70;;;2.42;;
41629;SDS011;27322;49.488;8.480;2023-09-18T05:18:11;7.50;;;2.17;;
41629;SDS011;27322;49.488;8.480;2023-09-18T05:20:40;7.03;;;1.90;;
41629;SDS011;27322;49.488;8.480;2023-09-18T05:23:05;6.97;;;1.80;;
41629;SDS011;27322;49.488;8.480;2023-09-18T05:25:33;6.63;;;1.92;;
41629;SDS011;27322;49.488;8.480;2023-09-18T05:28:02;6.43;;;1.77;;
41629;SDS011;27322;49.488;8.480;2023-09-18T05:30:31;7.20;;;1.60;;
41629;SDS011;27322;49.488;8.480;2023-09-18T05:32:59;4.72;;;1.65;;
41629;SDS011;27322;49.488;8.480;2023-09-18T05:35:32;4.87;;;1.50;;
41629;SDS011;27322;49.488;8.480;2023-09-18T05:37:58;5.03;;;1.35;;
41629;SDS011;27322;49.488;8.480;2023-09-18T05:40:24;7.13;;;1.70;;
41629;SDS011;27322;49.488;8.480;2023-09-18T05:42:54;4.68;;;1.20;;
41629;SDS011;27322;49.488;8.480;2023-09-18T05:45:20;4.97;;;1.20;;
41629;SDS011;27322;49.488;8.480;2023-09-18T05:47:46;8.30;;;1.52;;
41629;SDS011;27322;49.488;8.480;2023-09-18T05:50:12;5.07;;;1.33;;
41629;SDS011;27322;49.488;8.480;2023-09-18T05:52:45;6.05;;;1.48;;
41629;SDS011;27322;49.488;8.480;2023-09-18T05:55:11;5.38;;;1.75;;
41629;SDS011;27322;49.488;8.480;2023-09-18T05:57:38;6.72;;;1.70;;
41629;SDS011;27322;49.488;8.480;2023-09-18T06:00:03;12.07;;;2.10;;
41629;SDS011;27322;49.488;8.480;2023-09-18T06:02:30;5.28;;;1.38;;
41629;SDS011;27322;49.488;8.480;2023-09-18T06:04:56;6.70;;;1.23;;
41629;SDS011;27322;49.488;8.480;2023-09-18T06:07:25;4.65;;;1.25;;
41629;SDS011;27322;49.488;8.480;2023-09-18T06:09:51;4.57;;;1.70;;
41629;SDS011;27322;49.488;8.480;2023-09-18T06:12:17;8.07;;;1.55;;
41629;SDS011;27322;49.488;8.480;2023-09-18T06:14:42;3.78;;;1.33;;
41629;SDS011;27322;49.488;8.480;2023-09-18T06:17:08;6.00;;;1.60;;
41629;SDS011;27322;49.488;8.480;2023-09-18T06:19:34;4.55;;;1.30;;
41629;SDS011;27322;49.488;8.480;2023-09-18T06:22:00;4.38;;;1.60;;
41629;SDS011;27322;49.488;8.480;2023-09-18T06:24:26;9.93;;;2.30;;
41629;SDS011;27322;49.488;8.480;2023-09-18T06:26:51;6.45;;;1.70;;
41629;SDS011;27322;49.488;8.480;2023-09-18T06:29:18;7.30;;;1.60;;
41629;SDS011;27322;49.488;8.480;2023-09-18T06:31:43;5.43;;;1.50;;
41629;SDS011;27322;49.488;8.480;2023-09-18T06:34:09;9.20;;;2.10;;
41629;SDS011;27322;49.488;8.480;2023-09-18T06:36:34;6.78;;;1.33;;
41629;SDS011;27322;49.488;8.480;2023-09-18T06:39:00;6.43;;;1.38;;
41629;SDS011;27322;49.488;8.480;2023-09-18T06:41:26;5.65;;;1.83;;
41629;SDS011;27322;49.488;8.480;2023-09-18T06:43:51;4.95;;;1.23;;
41629;SDS011;27322;49.488;8.480;2023-09-18T06:46:17;6.50;;;1.50;;
41629;SDS011;27322;49.488;8.480;2023-09-18T06:48:43;7.43;;;1.73;;
41629;SDS011;27322;49.488;8.480;2023-09-18T06:51:10;9.68;;;1.27;;
41629;SDS011;27322;49.488;8.480;2023-09-18T06:53:36;7.05;;;1.52;;
41629;SDS011;27322;49.488;8.480;2023-09-18T06:56:02;5.60;;;1.10;;
41629;SDS011;27322;49.488;8.480;2023-09-18T06:58:27;9.43;;;1.55;;
41629;SDS011;27322;49.488;8.480;2023-09-18T07:00:53;5.50;;;1.38;;
41629;SDS011;27322;49.488;8.480;2023-09-18T07:03:18;3.72;;;1.05;;
41629;SDS011;27322;49.488;8.480;2023-09-18T07:05:44;2.60;;;1.05;;
41629;SDS011;27322;49.488;8.480;2023-09-18T07:08:11;7.28;;;1.00;;
41629;SDS011;27322;49.488;8.480;2023-09-18T07:10:38;4.63;;;0.70;;
41629;SDS011;27322;49.488;8.480;2023-09-18T07:13:04;5.15;;;1.10;;
41629;SDS011;27322;49.488;8.480;2023-09-18T07:15:29;4.93;;;0.90;;
41629;SDS011;27322;49.488;8.480;2023-09-18T07:17:55;3.33;;;0.60;;
41629;SDS011;27322;49.488;8.480;2023-09-18T07:20:21;8.20;;;1.00;;
41629;SDS011;27322;49.488;8.480;2023-09-18T07:22:48;4.07;;;0.75;;
41629;SDS011;27322;49.488;8.480;2023-09-18T07:25:14;4.82;;;1.00;;
41629;SDS011;27322;49.488;8.480;2023-09-18T07:27:40;3.75;;;0.85;;
41629;SDS011;27322;49.488;8.480;2023-09-18T07:30:09;3.42;;;0.70;;
41629;SDS011;27322;49.488;8.480;2023-09-18T07:32:42;1.85;;;0.55;;
41629;SDS011;27322;49.488;8.480;2023-09-18T07:35:09;6.03;;;0.70;;
41629;SDS011;27322;49.488;8.480;2023-09-18T07:37:35;4.13;;;0.70;;
41629;SDS011;27322;49.488;8.480;2023-09-18T07:40:02;6.63;;;0.73;;
41629;SDS011;27322;49.488;8.480;2023-09-18T07:42:29;3.00;;;0.60;;
41629;SDS011;27322;49.488;8.480;2023-09-18T07:44:54;3.75;;;0.50;;
41629;SDS011;27322;49.488;8.480;2023-09-18T07:47:20;6.68;;;0.80;;
41629;SDS011;27322;49.488;8.480;2023-09-18T07:49:45;2.58;;;0.70;;
41629;SDS011;27322;49.488;8.480;2023-09-18T07:52:12;3.53;;;0.60;;
41629;SDS011;27322;49.488;8.480;2023-09-18T07:54:37;1.83;;;0.60;;
41629;SDS011;27322;49.488;8.480;2023-09-18T07:57:03;6.32;;;0.93;;
41629;SDS011;27322;49.488;8.480;2023-09-18T07:59:29;1.90;;;0.73;;
41629;SDS011;27322;49.488;8.480;2023-09-18T08:01:55;4.57;;;0.70;;
41629;SDS011;27322;49.488;8.480;2023-09-18T08:04:21;1.65;;;0.50;;
41629;SDS011;27322;49.488;8.480;2023-09-18T08:06:46;3.78;;;0.90;;
41629;SDS011;27322;49.488;8.480;2023-09-18T08:09:12;6.38;;;0.73;;
41629;SDS011;27322;49.488;8.480;2023-09-18T08:11:40;2.50;;;0.90;;
41629;SDS011;27322;49.488;8.480;2023-09-18T08:14:08;2.95;;;0.57;;
41629;SDS011;27322;49.488;8.480;2023-09-18T08:16:34;2.88;;;0.60;;
41629;SDS011;27322;49.488;8.480;2023-09-18T08:19:01;4.43;;;0.65;;
41629;SDS011;27322;49.488;8.480;2023-09-18T08:21:26;5.43;;;0.70;;
41629;SDS011;27322;49.488;8.480;2023-09-18T08:23:54;4.25;;;0.73;;
41629;SDS011;27322;49.488;8.480;2023-09-18T08:26:20;8.07;;;0.68;;
41629;SDS011;27322;49.488;8.480;2023-09-18T08:28:46;3.15;;;0.70;;
41629;SDS011;27322;49.488;8.480;2023-09-18T08:31:12;4.05;;;0.75;;
41629;SDS011;27322;49.488;8.480;2023-09-18T08:33:39;2.35;;;0.70;;
41629;SDS011;27322;49.488;8.480;2023-09-18T08:36:04;7.38;;;0.73;;
41629;SDS011;27322;49.488;8.480;2023-09-18T08:38:30;3.10;;;0.50;;
41629;SDS011;27322;49.488;8.480;2023-09-18T08:40:57;2.35;;;0.60;;
41629;SDS011;27322;49.488;8.480;2023-09-18T08:43:22;2.13;;;0.80;;
41629;SDS011;27322;49.488;8.480;2023-09-18T08:45:51;2.80;;;0.60;;
41629;SDS011;27322;49.488;8.480;2023-09-18T08:48:18;1.70;;;0.43;;
41629;SDS011;27322;49.488;8.480;2023-09-18T08:50:45;4.03;;;0.50;;
41629;SDS011;27322;49.488;8.480;2023-09-18T08:53:12;4.28;;;0.70;;
41629;SDS011;27322;49.488;8.480;2023-09-18T08:55:37;1.95;;;0.65;;
41629;SDS011;27322;49.488;8.480;2023-09-18T08:58:03;3.55;;;0.60;;
41629;SDS011;27322;49.488;8.480;2023-09-18T09:00:29;3.80;;;0.73;;
41629;SDS011;27322;49.488;8.480;2023-09-18T09:02:55;5.28;;;0.93;;
41629;SDS011;27322;49.488;8.480;2023-09-18T09:05:21;2.53;;;0.63;;
41629;SDS011;27322;49.488;8.480;2023-09-18T09:07:48;3.15;;;0.60;;
41629;SDS011;27322;49.488;8.480;2023-09-18T09:10:14;4.40;;;0.57;;
41629;SDS011;27322;49.488;8.480;2023-09-18T09:12:56;6.70;;;0.80;;
41629;SDS011;27322;49.488;8.480;2023-09-18T09:15:24;3.00;;;0.63;;
41629;SDS011;27322;49.488;8.480;2023-09-18T09:17:52;1.83;;;0.60;;
41629;SDS011;27322;49.488;8.480;2023-09-18T09:20:30;3.63;;;0.68;;
41629;SDS011;27322;49.488;8.480;2023-09-18T09:23:00;2.92;;;0.70;;
41629;SDS011;27322;49.488;8.480;2023-09-18T09:25:30;4.43;;;0.60;;
41629;SDS011;27322;49.488;8.480;2023-09-18T09:27:58;5.53;;;0.77;;
41629;SDS011;27322;49.488;8.480;2023-09-18T09:30:26;4.28;;;0.50;;
41629;SDS011;27322;49.488;8.480;2023-09-18T09:32:53;2.88;;;0.65;;
41629;SDS011;27322;49.488;8.480;2023-09-18T09:40:26;2.28;;;0.70;;
41629;SDS011;27322;49.488;8.480;2023-09-18T09:42:55;6.78;;;0.50;;
41629;SDS011;27322;49.488;8.480;2023-09-18T09:45:30;1.30;;;0.47;;
41629;SDS011;27322;49.488;8.480;2023-09-18T09:48:00;2.67;;;0.88;;
41629;SDS011;27322;49.488;8.480;2023-09-18T09:50:29;3.17;;;0.60;;
41629;SDS011;27322;49.488;8.480;2023-09-18T09:52:55;4.28;;;0.68;;
41629;SDS011;27322;49.488;8.480;2023-09-18T09:55:25;2.15;;;0.52;;
41629;SDS011;27322;49.488;8.480;2023-09-18T09:58:02;2.28;;;0.70;;
41629;SDS011;27322;49.488;8.480;2023-09-18T10:00:39;2.15;;;0.82;;
41629;SDS011;27322;49.488;8.480;2023-09-18T10:03:09;1.98;;;0.68;;
41629;SDS011;27322;49.488;8.480;2023-09-18T10:05:37;1.73;;;0.50;;
41629;SDS011;27322;49.488;8.480;2023-09-18T10:08:06;3.15;;;0.60;;
41629;SDS011;27322;49.488;8.480;2023-09-18T10:10:38;5.50;;;0.60;;
41629;SDS011;27322;49.488;8.480;2023-09-18T10:16:00;3.13;;;0.70;;
41629;SDS011;27322;49.488;8.480;2023-09-18T10:21:06;3.28;;;0.55;;
41629;SDS011;27322;49.488;8.480;2023-09-18T10:23:37;4.50;;;1.00;;
41629;SDS011;27322;49.488;8.480;2023-09-18T10:26:14;4.47;;;1.00;;
41629;SDS011;27322;49.488;8.480;2023-09-18T10:28:45;3.50;;;0.80;;
41629;SDS011;27322;49.488;8.480;2023-09-18T10:31:13;1.80;;;0.55;;
41629;SDS011;27322;49.488;8.480;2023-09-18T10:33:39;2.83;;;0.50;;
41629;SDS011;27322;49.488;8.480;2023-09-18T10:36:06;4.63;;;0.95;;
41629;SDS011;27322;49.488;8.480;2023-09-18T10:38:34;1.90;;;0.63;;
41629;SDS011;27322;49.488;8.480;2023-09-18T10:41:03;2.58;;;0.75;;
41629;SDS011;27322;49.488;8.480;2023-09-18T10:43:30;4.90;;;0.60;;
41629;SDS011;27322;49.488;8.480;2023-09-18T10:45:55;3.28;;;0.80;;
41629;SDS011;27322;49.488;8.480;2023-09-18T10:48:22;5.93;;;0.90;;
41629;SDS011;27322;49.488;8.480;2023-09-18T10:50:48;2.92;;;0.63;;
41629;SDS011;27322;49.488;8.480;2023-09-18T10:53:15;3.42;;;0.63;;
41629;SDS011;27322;49.488;8.480;2023-09-18T10:55:44;2.72;;;0.60;;
41629;SDS011;27322;49.488;8.480;2023-09-18T10:58:10;5.13;;;0.82;;
41629;SDS011;27322;49.488;8.480;2023-09-18T11:00:36;3.55;;;0.80;;
41629;SDS011;27322;49.488;8.480;2023-09-18T11:03:21;2.05;;;0.60;;
41629;SDS011;27322;49.488;8.480;2023-09-18T11:05:48;2.35;;;0.50;;
41629;SDS011;27322;49.488;8.480;2023-09-18T11:08:28;4.88;;;0.70;;
41629;SDS011;27322;49.488;8.480;2023-09-18T11:10:59;2.05;;;0.68;;
41629;SDS011;27322;49.488;8.480;2023-09-18T11:13:38;1.98;;;0.60;;
41629;SDS011;27322;49.488;8.480;2023-09-18T11:16:18;4.90;;;0.68;;
41629;SDS011;27322;49.488;8.480;2023-09-18T11:19:07;2.30;;;0.73;;
41629;SDS011;27322;49.488;8.480;2023-09-18T11:21:34;3.70;;;0.80;;
41629;SDS011;27322;49.488;8.480;2023-09-18T11:24:16;4.65;;;0.73;;
41629;SDS011;27322;49.488;8.480;2023-09-18T11:26:45;3.47;;;0.95;;
41629;SDS011;27322;49.488;8.480;2023-09-18T11:29:22;6.45;;;0.60;;
41629;SDS011;27322;49.488;8.480;2023-09-18T11:34:28;2.42;;;0.65;;
41629;SDS011;27322;49.488;8.480;2023-09-18T11:36:59;6.88;;;0.73;;
41629;SDS011;27322;49.488;8.480;2023-09-18T11:44:33;3.20;;;0.85;;
41629;SDS011;27322;49.488;8.480;2023-09-18T11:47:01;7.20;;;0.77;;
41629;SDS011;27322;49.488;8.480;2023-09-18T11:49:29;5.22;;;0.60;;
41629;SDS011;27322;49.488;8.480;2023-09-18T11:52:00;5.13;;;0.73;;
41629;SDS011;27322;49.488;8.480;2023-09-18T11:54:27;2.80;;;0.50;;
41629;SDS011;27322;49.488;8.480;2023-09-18T11:56:54;3.13;;;0.70;;
41629;SDS011;27322;49.488;8.480;2023-09-18T11:59:32;2.65;;;0.70;;
41629;SDS011;27322;49.488;8.480;2023-09-18T12:02:08;4.15;;;0.75;;
41629;SDS011;27322;49.488;8.480;2023-09-18T12:04:35;2.22;;;0.70;;
41629;SDS011;27322;49.488;8.480;2023-09-18T12:07:00;1.98;;;0.60;;
41629;SDS011;27322;49.488;8.480;2023-09-18T12:09:32;3.03;;;0.70;;
41629;SDS011;27322;49.488;8.480;2023-09-18T12:12:01;2.83;;;0.60;;
41629;SDS011;27322;49.488;8.480;2023-09-18T12:14:31;1.95;;;0.70;;
41629;SDS011;27322;49.488;8.480;2023-09-18T12:16:59;3.10;;;0.70;;
41629;SDS011;27322;49.488;8.480;2023-09-18T12:19:29;1.58;;;0.57;;
41629;SDS011;27322;49.488;8.480;2023-09-18T12:21:55;2.55;;;0.60;;
41629;SDS011;27322;49.488;8.480;2023-09-18T12:24:21;4.28;;;0.80;;
41629;SDS011;27322;49.488;8.480;2023-09-18T12:26:48;6.20;;;1.00;;
41629;SDS011;27322;49.488;8.480;2023-09-18T12:29:14;3.35;;;0.65;;
41629;SDS011;27322;49.488;8.480;2023-09-18T12:31:40;2.03;;;0.63;;
41629;SDS011;27322;49.488;8.480;2023-09-18T12:34:20;2.67;;;0.70;;
41629;SDS011;27322;49.488;8.480;2023-09-18T12:36:47;3.50;;;0.60;;
41629;SDS011;27322;49.488;8.480;2023-09-18T12:39:14;3.50;;;0.73;;
41629;SDS011;27322;49.488;8.480;2023-09-18T12:41:44;2.10;;;0.75;;
41629;SDS011;27322;49.488;8.480;2023-09-18T12:44:10;1.08;;;0.55;;
41629;SDS011;27322;49.488;8.480;2023-09-18T12:46:37;4.47;;;0.70;;
41629;SDS011;27322;49.488;8.480;2023-09-18T12:49:18;4.22;;;0.70;;
41629;SDS011;27322;49.488;8.480;2023-09-18T12:51:55;3.20;;;0.60;;
41629;SDS011;27322;49.488;8.480;2023-09-18T12:54:21;3.03;;;0.60;;
41629;SDS011;27322;49.488;8.480;2023-09-18T12:57:01;3.72;;;0.70;;
41629;SDS011;27322;49.488;8.480;2023-09-18T12:59:32;4.50;;;0.50;;
41629;SDS011;27322;49.488;8.480;2023-09-18T13:02:00;4.22;;;0.85;;
41629;SDS011;27322;49.488;8.480;2023-09-18T13:04:32;2.00;;;0.70;;
41629;SDS011;27322;49.488;8.480;2023-09-18T13:07:10;4.40;;;0.55;;
41629;SDS011;27322;49.488;8.480;2023-09-18T13:09:38;3.13;;;0.55;;
41629;SDS011;27322;49.488;8.480;2023-09-18T13:12:04;4.78;;;0.85;;
41629;SDS011;27322;49.488;8.480;2023-09-18T13:14:49;1.83;;;0.40;;
41629;SDS011;27322;49.488;8.480;2023-09-18T13:17:24;3.50;;;0.70;;
41629;SDS011;27322;49.488;8.480;2023-09-18T13:19:50;2.15;;;0.60;;
41629;SDS011;27322;49.488;8.480;2023-09-18T13:22:25;3.40;;;0.90;;
41629;SDS011;27322;49.488;8.480;2023-09-18T13:24:57;1.90;;;0.60;;
41629;SDS011;27322;49.488;8.480;2023-09-18T13:27:22;4.07;;;0.70;;
41629;SDS011;27322;49.488;8.480;2023-09-18T13:29:49;5.47;;;0.60;;
41629;SDS011;27322;49.488;8.480;2023-09-18T13:32:16;3.78;;;0.75;;
41629;SDS011;27322;49.488;8.480;2023-09-18T13:34:42;2.03;;;0.60;;
41629;SDS011;27322;49.488;8.480;2023-09-18T13:37:07;2.08;;;0.60;;
41629;SDS011;27322;49.488;8.480;2023-09-18T13:39:33;1.83;;;0.50;;
41629;SDS011;27322;49.488;8.480;2023-09-18T13:41:58;1.02;;;0.50;;
41629;SDS011;27322;49.488;8.480;2023-09-18T13:44:24;2.03;;;0.60;;
41629;SDS011;27322;49.488;8.480;2023-09-18T13:46:49;2.97;;;0.60;;
41629;SDS011;27322;49.488;8.480;2023-09-18T13:49:15;1.33;;;0.52;;
41629;SDS011;27322;49.488;8.480;2023-09-18T13:51:40;2.35;;;0.77;;
41629;SDS011;27322;49.488;8.480;2023-09-18T13:54:06;2.42;;;0.70;;
41629;SDS011;27322;49.488;8.480;2023-09-18T13:56:32;4.53;;;1.33;;
41629;SDS011;27322;49.488;8.480;2023-09-18T13:58:58;2.50;;;0.75;;
41629;SDS011;27322;49.488;8.480;2023-09-18T14:01:23;2.25;;;0.50;;
41629;SDS011;27322;49.488;8.480;2023-09-18T14:03:53;2.97;;;0.70;;
41629;SDS011;27322;49.488;8.480;2023-09-18T14:06:19;3.22;;;0.60;;
41629;SDS011;27322;49.488;8.480;2023-09-18T14:08:44;2.45;;;0.40;;
41629;SDS011;27322;49.488;8.480;2023-09-18T14:11:10;2.35;;;0.57;;
41629;SDS011;27322;49.488;8.480;2023-09-18T14:13:36;2.13;;;0.52;;
41629;SDS011;27322;49.488;8.480;2023-09-18T14:16:01;1.98;;;0.60;;
41629;SDS011;27322;49.488;8.480;2023-09-18T14:18:28;1.65;;;0.52;;
41629;SDS011;27322;49.488;8.480;2023-09-18T14:20:54;2.05;;;0.52;;
41629;SDS011;27322;49.488;8.480;2023-09-18T14:23:20;3.72;;;0.52;;
41629;SDS011;27322;49.488;8.480;2023-09-18T14:25:46;2.65;;;0.68;;
41629;SDS011;27322;49.488;8.480;2023-09-18T14:28:11;2.53;;;0.52;;
41629;SDS011;27322;49.488;8.480;2023-09-18T14:30:38;1.40;;;0.50;;
41629;SDS011;27322;49.488;8.480;2023-09-18T14:33:04;2.63;;;0.43;;
41629;SDS011;27322;49.488;8.480;2023-09-18T14:35:29;2.85;;;0.70;;
41629;SDS011;27322;49.488;8.480;2023-09-18T14:37:55;5.35;;;0.68;;
41629;SDS011;27322;49.488;8.480;2023-09-18T14:40:21;6.97;;;0.80;;
41629;SDS011;27322;49.488;8.480;2023-09-18T14:42:46;1.13;;;0.40;;
41629;SDS011;27322;49.488;8.480;2023-09-18T14:45:12;2.28;;;0.50;;
41629;SDS011;27322;49.488;8.480;2023-09-18T14:47:38;1.70;;;0.50;;
41629;SDS011;27322;49.488;8.480;2023-09-18T14:50:04;1.33;;;0.52;;
41629;SDS011;27322;49.488;8.480;2023-09-18T14:52:31;2.60;;;0.70;;
41629;SDS011;27322;49.488;8.480;2023-09-18T14:54:57;3.00;;;0.60;;
41629;SDS011;27322;49.488;8.480;2023-09-18T14:57:23;3.60;;;0.52;;
41629;SDS011;27322;49.488;8.480;2023-09-18T14:59:49;3.10;;;0.57;;
41629;SDS011;27322;49.488;8.480;2023-09-18T15:02:14;2.95;;;0.50;;
41629;SDS011;27322;49.488;8.480;2023-09-18T15:04:41;4.65;;;0.68;;
41629;SDS011;27322;49.488;8.480;2023-09-18T15:07:07;1.45;;;0.50;;
41629;SDS011;27322;49.488;8.480;2023-09-18T15:09:33;2.38;;;0.70;;
41629;SDS011;27322;49.488;8.480;2023-09-18T15:11:59;1.98;;;0.55;;